Time;durP1;ratioP1;P1;durP2;ratioP2;P2;SDS_P1;SDS_P2;PMS_P1;PMS_P2;Temp;Humidity;BMP_temperature;BMP_pressure;BME280_temperature;BME280_humidity;BME280_pressure;Samples;Min_cycle;Max_cycle;Signal;HPM_P1;HPM_P2
2023/09/18 00:00:46;;;;;;;;;;;22.10;52.20;;;18.11;82.84;95019.94;5033227;28;20271;-45
2023/09/18 00:03:12;;;;;;;;;;;22.00;52.20;;;18.06;82.98;95017.44;5033092;28;19912;-45
2023/09/18 00:05:37;;;;;;;;;;;22.00;52.20;;;17.98;85.08;95012.88;5030116;28;19909;-45
2023/09/18 00:08:03;;;;;;;;;;;22.00;52.30;;;18.00;85.31;95024.91;5033053;28;19917;-45
2023/09/18 00:10:30;;;;;;;;;;;22.00;52.40;;;18.00;85.47;95034.91;5022588;28;20303;-47
2023/09/18 00:12:56;;;;;;;;;;;21.90;52.40;;;17.95;86.72;95033.16;5028629;28;19917;-44
2023/09/18 00:15:23;;;;;;;;;;;21.90;52.40;;;17.99;85.48;95046.81;5032721;28;19909;-49
2023/09/18 00:17:49;;;;;;;;;;;21.90;52.50;;;17.99;85.36;95054.88;5019391;28;19970;-52
2023/09/18 00:20:17;;;;;;;;;;;21.90;52.50;;;17.94;84.78;95052.38;5015405;28;20372;-44
2023/09/18 00:22:43;;;;;;;;;;;21.90;52.60;;;17.92;85.20;95054.59;5028469;28;20451;-46
2023/09/18 00:25:09;;;;;;;;;;;21.80;52.50;;;17.85;86.97;95033.53;5024225;28;19974;-44
2023/09/18 00:27:36;;;;;;;;;;;21.80;52.60;;;17.79;87.69;95029.44;5017121;28;20035;-47
2023/09/18 00:30:03;;;;;;;;;;;21.80;52.60;;;17.73;87.30;95031.50;5021082;28;20003;-44
2023/09/18 00:32:30;;;;;;;;;;;21.80;52.70;;;17.65;83.78;95031.53;5016735;28;19920;-45
2023/09/18 00:34:56;;;;;;;;;;;21.70;52.80;;;17.90;82.94;95024.50;5018715;28;19915;-48
2023/09/18 00:37:22;;;;;;;;;;;21.70;53.00;;;18.01;83.16;95014.91;5030961;28;19909;-44
2023/09/18 00:39:50;;;;;;;;;;;21.70;53.00;;;18.00;84.69;95016.03;5023009;28;19912;-45
2023/09/18 00:42:17;;;;;;;;;;;21.70;53.00;;;17.97;84.72;95017.47;5007698;28;20036;-46
2023/09/18 00:44:44;;;;;;;;;;;21.70;53.10;;;17.93;83.72;95019.25;5031735;28;19916;-49
2023/09/18 00:47:12;;;;;;;;;;;21.70;53.00;;;17.88;86.01;95011.34;5021804;28;19909;-46
2023/09/18 00:49:41;;;;;;;;;;;21.70;53.10;;;17.79;86.34;94995.22;5001249;28;20356;-44
2023/09/18 00:52:10;;;;;;;;;;;21.70;53.10;;;17.73;87.45;94991.09;5017703;28;19923;-44
2023/09/18 00:54:39;;;;;;;;;;;21.60;53.10;;;17.62;89.03;94975.63;5020141;28;19913;-45
2023/09/18 00:57:06;;;;;;;;;;;21.50;53.10;;;17.63;89.51;94967.22;5030688;28;19908;-48
2023/09/18 00:59:33;;;;;;;;;;;21.50;53.20;;;17.58;90.75;94954.75;5021632;28;19947;-45
2023/09/18 01:01:59;;;;;;;;;;;21.40;53.80;;;17.52;92.34;94956.03;5032008;28;19919;-44
2023/09/18 01:04:28;;;;;;;;;;;21.40;53.30;;;17.43;94.83;94941.81;5022751;28;19914;-44
2023/09/18 01:06:56;;;;;;;;;;;21.40;53.40;;;17.34;96.03;94947.22;5031691;28;19943;-47
2023/09/18 01:09:23;;;;;;;;;;;21.30;53.60;;;17.29;96.12;94942.00;5031774;28;19978;-44
2023/09/18 01:12:08;;;;;;;;;;;21.20;53.60;;;17.15;98.61;94929.91;5019440;28;20307;-45
2023/09/18 01:14:43;;;;;;;;;;;21.10;53.70;;;17.12;98.46;94928.63;5030041;28;19908;-44
2023/09/18 01:17:13;;;;;;;;;;;21.10;53.90;;;17.05;98.45;94931.81;5024806;28;19916;-44
2023/09/18 01:19:41;;;;;;;;;;;21.00;54.00;;;16.89;100.00;94925.34;5030488;28;19952;-44
2023/09/18 01:22:10;;;;;;;;;;;20.90;54.10;;;16.91;100.00;94916.97;5024854;28;20406;-45
2023/09/18 01:24:39;;;;;;;;;;;20.90;54.30;;;16.88;100.00;94913.03;5031102;28;19944;-46
2023/09/18 01:27:09;;;;;;;;;;;20.80;54.40;;;16.90;100.00;94929.66;5020546;28;20377;-44
2023/09/18 01:29:34;;;;;;;;;;;20.80;54.60;;;16.92;100.00;94946.22;5021141;28;19938;-45
2023/09/18 01:32:00;;;;;;;;;;;20.80;54.90;;;16.98;100.00;94933.41;5031789;28;19913;-43
2023/09/18 01:34:35;;;;;;;;;;;20.80;55.00;;;16.98;100.00;94928.81;5019605;28;19909;-49
2023/09/18 01:37:08;;;;;;;;;;;20.80;55.10;;;17.06;100.00;94946.06;5029907;28;20019;-46
2023/09/18 01:39:35;;;;;;;;;;;20.80;55.20;;;17.12;100.00;94939.41;5031281;28;20319;-50
2023/09/18 01:42:05;;;;;;;;;;;20.90;55.40;;;17.16;100.00;94944.91;5022341;28;19962;-47
2023/09/18 01:44:32;;;;;;;;;;;20.90;55.40;;;17.20;100.00;94951.22;5030546;28;19908;-45
2023/09/18 01:47:02;;;;;;;;;;;20.90;55.50;;;17.22;100.00;94939.03;5024642;28;19913;-45
2023/09/18 01:49:36;;;;;;;;;;;21.00;55.60;;;17.20;100.00;94937.78;5030132;28;19927;-45
2023/09/18 01:52:04;;;;;;;;;;;21.00;55.60;;;17.18;100.00;94948.09;5024972;28;19913;-45
2023/09/18 01:54:31;;;;;;;;;;;21.00;55.50;;;17.15;100.00;94954.13;5029647;28;19991;-44
2023/09/18 01:56:57;;;;;;;;;;;21.10;55.60;;;17.14;100.00;94956.00;5029597;28;19909;-44
2023/09/18 01:59:24;;;;;;;;;;;21.00;55.60;;;17.10;100.00;94947.00;5021828;28;19908;-49
2023/09/18 02:01:51;;;;;;;;;;;21.00;56.20;;;17.05;100.00;94955.25;5021384;28;20338;-44
2023/09/18 02:04:18;;;;;;;;;;;21.00;55.70;;;16.98;100.00;94942.25;5015344;28;20332;-48
2023/09/18 02:06:46;;;;;;;;;;;21.00;55.70;;;16.91;100.00;94947.34;5030309;28;19966;-47
2023/09/18 02:09:12;;;;;;;;;;;20.90;55.70;;;16.86;100.00;94955.59;5022889;28;19940;-49
2023/09/18 02:11:46;;;;;;;;;;;20.90;55.80;;;16.82;100.00;94960.81;5016219;28;20397;-45
2023/09/18 02:14:12;;;;;;;;;;;20.80;55.90;;;16.72;100.00;94955.75;5030124;28;19924;-48
2023/09/18 02:16:43;;;;;;;;;;;20.80;55.90;;;16.70;100.00;94951.78;5024170;28;19912;-47
2023/09/18 02:19:11;;;;;;;;;;;20.70;56.00;;;16.68;100.00;94954.81;5030520;28;19909;-44
2023/09/18 02:21:37;;;;;;;;;;;20.70;56.10;;;16.62;100.00;94948.78;5029449;28;19912;-50
2023/09/18 02:24:03;;;;;;;;;;;20.60;56.10;;;16.54;100.00;94949.56;5025692;28;20356;-50
2023/09/18 02:26:30;;;;;;;;;;;20.60;56.30;;;16.51;100.00;94950.22;5025391;28;19909;-44
2023/09/18 02:29:01;;;;;;;;;;;20.50;56.40;;;16.47;100.00;94957.34;5016208;28;19912;-45
2023/09/18 02:31:27;;;;;;;;;;;20.50;56.50;;;16.39;100.00;94963.53;5011829;28;19948;-45
2023/09/18 02:33:53;;;;;;;;;;;20.50;56.50;;;16.43;100.00;94969.84;5026643;28;19917;-48
2023/09/18 02:36:18;;;;;;;;;;;20.40;56.60;;;16.36;100.00;94993.72;5027926;28;19963;-45
2023/09/18 02:38:44;;;;;;;;;;;20.40;56.80;;;16.36;100.00;94999.88;5030611;28;20363;-47
2023/09/18 02:41:10;;;;;;;;;;;20.40;57.00;;;16.36;100.00;95016.00;5019349;28;19912;-44
2023/09/18 02:43:39;;;;;;;;;;;20.40;57.00;;;16.36;100.00;95044.78;5014140;28;20004;-44
2023/09/18 02:46:06;;;;;;;;;;;20.40;57.10;;;16.37;100.00;95051.72;5023936;28;19917;-44
2023/09/18 02:48:32;;;;;;;;;;;20.30;57.10;;;16.38;100.00;95056.78;5021800;28;19919;-46
2023/09/18 02:51:02;;;;;;;;;;;20.40;57.20;;;16.38;100.00;95072.91;5029989;28;19956;-45
2023/09/18 02:53:29;;;;;;;;;;;20.40;57.30;;;16.39;100.00;95073.72;5012399;28;20298;-48
2023/09/18 02:55:57;;;;;;;;;;;20.40;57.30;;;16.39;100.00;95076.41;5010759;28;19909;-44
2023/09/18 02:58:25;;;;;;;;;;;20.40;57.30;;;16.40;100.00;95086.03;5009310;28;20427;-47
2023/09/18 03:00:56;;;;;;;;;;;20.40;57.30;;;16.40;100.00;95086.03;5011094;28;19909;-47
2023/09/18 03:03:22;;;;;;;;;;;20.50;57.40;;;16.41;100.00;95088.41;5011273;28;19913;-49
2023/09/18 03:05:48;;;;;;;;;;;20.40;57.40;;;16.43;100.00;95077.34;5019873;28;19909;-47
2023/09/18 03:08:18;;;;;;;;;;;20.40;57.40;;;16.44;100.00;95103.13;5017632;28;20265;-46
2023/09/18 03:10:44;;;;;;;;;;;20.40;58.00;;;16.41;100.00;95125.25;5011924;28;20435;-46
2023/09/18 03:13:14;;;;;;;;;;;20.40;57.50;;;16.49;100.00;95121.78;5013950;28;19915;-45
2023/09/18 03:15:40;;;;;;;;;;;20.40;57.60;;;16.66;100.00;95123.72;5004571;28;20279;-47
2023/09/18 03:18:09;;;;;;;;;;;20.50;57.80;;;16.87;100.00;95110.50;5016607;28;19913;-43
2023/09/18 03:20:35;;;;;;;;;;;20.60;58.00;;;17.07;100.00;95109.06;5017389;28;19919;-44
2023/09/18 03:23:02;;;;;;;;;;;20.70;58.10;;;17.21;100.00;95108.91;5022312;28;19909;-47
2023/09/18 03:25:28;;;;;;;;;;;20.70;58.20;;;17.31;100.00;95104.00;5013469;28;19924;-49
2023/09/18 03:27:57;;;;;;;;;;;20.80;58.20;;;17.38;100.00;95100.03;5010045;28;20238;-45
2023/09/18 03:30:24;;;;;;;;;;;21.00;58.20;;;17.40;100.00;95098.59;5013119;28;19992;-44
2023/09/18 03:32:51;;;;;;;;;;;21.00;58.10;;;17.47;100.00;95098.09;5021783;28;19913;-44
2023/09/18 03:35:18;;;;;;;;;;;21.10;58.00;;;17.54;100.00;95107.28;5003649;28;20257;-44
2023/09/18 03:37:55;;;;;;;;;;;21.20;58.10;;;17.61;100.00;95111.38;5014010;28;19916;-52
2023/09/18 03:40:22;;;;;;;;;;;21.20;58.30;;;17.63;100.00;95103.78;5014980;28;19909;-48
2023/09/18 03:42:48;;;;;;;;;;;21.30;58.30;;;17.65;100.00;95099.66;5013735;28;19936;-46
2023/09/18 03:45:15;;;;;;;;;;;21.30;58.30;;;17.69;100.00;95102.50;5008908;28;20361;-45
2023/09/18 03:47:42;;;;;;;;;;;21.40;58.40;;;17.72;100.00;95096.47;5010010;28;19951;-46
2023/09/18 03:50:09;;;;;;;;;;;21.40;58.50;;;17.73;100.00;95093.44;5013642;28;19955;-46
2023/09/18 03:52:38;;;;;;;;;;;21.50;58.60;;;17.73;100.00;95089.97;5013917;28;19973;-46
2023/09/18 03:55:05;;;;;;;;;;;21.50;58.60;;;17.71;100.00;95098.38;5020315;28;19908;-45
2023/09/18 03:57:30;;;;;;;;;;;21.50;58.70;;;17.71;100.00;95089.50;5013998;28;20303;-46
2023/09/18 03:59:56;;;;;;;;;;;21.50;58.70;;;17.68;100.00;95082.06;5013096;28;19920;-47
2023/09/18 04:02:25;;;;;;;;;;;21.50;58.80;;;17.70;100.00;95080.63;5013157;28;19948;-45
2023/09/18 04:04:53;;;;;;;;;;;21.50;58.80;;;17.68;100.00;95082.84;5011945;28;19932;-51
2023/09/18 04:07:19;;;;;;;;;;;21.50;58.80;;;17.67;100.00;95077.78;5013564;28;19917;-48
2023/09/18 04:09:46;;;;;;;;;;;21.50;58.80;;;17.65;100.00;95071.94;5012404;28;19915;-45
2023/09/18 04:12:12;;;;;;;;;;;21.50;58.80;;;17.62;100.00;95077.97;5012857;28;20376;-47
2023/09/18 04:14:38;;;;;;;;;;;21.40;58.80;;;17.60;100.00;95083.66;5025993;28;19939;-46
2023/09/18 04:17:04;;;;;;;;;;;21.40;58.70;;;17.54;100.00;95069.56;5007023;28;20387;-49
2023/09/18 04:19:30;;;;;;;;;;;21.40;58.70;;;17.50;100.00;95060.56;5012911;28;20012;-48
2023/09/18 04:21:56;;;;;;;;;;;21.30;58.60;;;17.46;100.00;95067.72;5014388;28;19913;-45
2023/09/18 04:24:23;;;;;;;;;;;21.30;58.60;;;17.43;100.00;95071.03;5027680;28;20293;-43
2023/09/18 04:26:52;;;;;;;;;;;21.30;58.60;;;17.34;100.00;95071.06;5022446;28;20503;-46
2023/09/18 04:29:19;;;;;;;;;;;21.30;58.70;;;17.30;100.00;95085.47;5022590;28;19912;-45
2023/09/18 04:31:45;;;;;;;;;;;21.20;58.70;;;17.30;100.00;95093.56;5031385;28;19913;-48
2023/09/18 04:34:11;;;;;;;;;;;21.20;58.70;;;17.26;100.00;95106.03;5006722;28;19924;-45
2023/09/18 04:36:37;;;;;;;;;;;21.20;58.80;;;17.18;100.00;95109.56;5016418;28;19920;-48
2023/09/18 04:39:08;;;;;;;;;;;21.10;58.70;;;17.07;100.00;95120.63;5032592;28;19908;-45
2023/09/18 04:41:34;;;;;;;;;;;21.10;58.70;;;17.01;100.00;95124.56;5018108;28;19921;-47
2023/09/18 04:43:59;;;;;;;;;;;21.00;58.70;;;16.94;100.00;95124.25;5032033;28;19909;-44
2023/09/18 04:46:25;;;;;;;;;;;21.00;58.70;;;16.88;100.00;95125.50;5008103;28;20303;-46
2023/09/18 04:48:51;;;;;;;;;;;20.90;58.80;;;16.84;100.00;95116.50;5032445;28;20062;-51
2023/09/18 04:51:17;;;;;;;;;;;20.90;58.90;;;16.80;100.00;95123.63;5027287;28;19917;-45
2023/09/18 04:53:43;;;;;;;;;;;20.80;59.20;;;16.81;100.00;95119.81;5022913;28;19909;-45
2023/09/18 04:56:10;;;;;;;;;;;20.80;59.20;;;16.82;100.00;95126.78;5019692;28;19917;-47
2023/09/18 04:58:39;;;;;;;;;;;20.80;59.30;;;16.83;100.00;95118.41;5019044;28;19916;-48
2023/09/18 05:01:06;;;;;;;;;;;20.80;59.40;;;16.82;100.00;95116.81;5012462;28;19909;-48
2023/09/18 05:03:36;;;;;;;;;;;20.80;59.40;;;16.88;100.00;95114.75;5033023;28;19909;-49
2023/09/18 05:06:03;;;;;;;;;;;20.80;59.50;;;16.91;100.00;95114.13;5031051;28;19908;-46
2023/09/18 05:08:29;;;;;;;;;;;20.80;59.50;;;16.87;100.00;95121.25;5019466;28;20390;-47
2023/09/18 05:10:55;;;;;;;;;;;20.90;59.40;;;16.80;100.00;95135.16;5025828;28;19952;-45
2023/09/18 05:13:21;;;;;;;;;;;20.80;59.40;;;16.83;100.00;95120.31;5032672;28;20359;-45
2023/09/18 05:15:47;;;;;;;;;;;20.90;59.40;;;16.81;100.00;95114.44;5018324;28;19968;-45
2023/09/18 05:18:13;;;;;;;;;;;20.80;59.40;;;16.79;100.00;95117.44;5020200;28;19909;-45
2023/09/18 05:20:39;;;;;;;;;;;20.80;59.40;;;16.75;100.00;95110.28;5031754;28;19908;-45
2023/09/18 05:23:05;;;;;;;;;;;20.80;59.40;;;16.77;100.00;95114.28;5015598;28;19916;-45
2023/09/18 05:25:32;;;;;;;;;;;20.80;59.40;;;16.76;100.00;95126.13;5008431;28;19924;-48
2023/09/18 05:28:00;;;;;;;;;;;20.80;59.50;;;16.75;100.00;95111.09;5016365;28;20000;-44
2023/09/18 05:30:35;;;;;;;;;;;20.80;59.60;;;16.76;100.00;95109.22;5014310;28;19913;-45
2023/09/18 05:33:05;;;;;;;;;;;20.80;59.60;;;16.75;100.00;95104.91;5018903;28;20106;-44
2023/09/18 05:35:32;;;;;;;;;;;20.80;59.60;;;16.78;100.00;95098.94;5024571;28;20003;-49
2023/09/18 05:37:59;;;;;;;;;;;20.80;59.60;;;16.79;100.00;95092.44;5023254;28;19913;-47
2023/09/18 05:40:26;;;;;;;;;;;20.80;60.20;;;16.74;100.00;95082.63;5007243;28;19952;-47
2023/09/18 05:42:55;;;;;;;;;;;20.90;59.60;;;16.77;100.00;95078.53;5020531;28;20360;-47
2023/09/18 05:45:21;;;;;;;;;;;20.90;59.60;;;16.79;100.00;95082.47;5030683;28;19909;-47
2023/09/18 05:47:47;;;;;;;;;;;20.90;59.70;;;16.80;100.00;95096.72;5016244;28;19912;-47
2023/09/18 05:50:17;;;;;;;;;;;20.90;59.70;;;16.81;100.00;95095.63;5026189;28;20015;-48
2023/09/18 05:52:44;;;;;;;;;;;20.90;59.80;;;16.83;100.00;95107.66;5026005;28;20433;-44
2023/09/18 05:55:11;;;;;;;;;;;20.90;59.70;;;16.84;100.00;95095.78;5026166;28;19916;-43
2023/09/18 05:57:37;;;;;;;;;;;21.00;59.70;;;16.86;100.00;95095.47;5029810;28;19912;-48
2023/09/18 06:00:05;;;;;;;;;;;21.00;59.70;;;16.90;100.00;95101.78;5022994;28;19923;-46
2023/09/18 06:02:31;;;;;;;;;;;21.10;59.80;;;16.93;100.00;95105.75;5029780;28;19915;-43
2023/09/18 06:05:00;;;;;;;;;;;21.10;59.70;;;16.94;100.00;95108.13;5025458;28;19912;-45
2023/09/18 06:07:29;;;;;;;;;;;21.20;59.70;;;16.97;100.00;95114.75;5024817;28;20457;-44
2023/09/18 06:09:57;;;;;;;;;;;21.20;59.70;;;16.98;100.00;95116.34;4947281;28;21787;-44
2023/09/18 06:12:24;;;;;;;;;;;21.30;59.70;;;17.03;100.00;95116.97;5028323;28;20346;-43
2023/09/18 06:14:51;;;;;;;;;;;21.40;59.70;;;17.11;100.00;95118.09;5030184;28;19958;-45
2023/09/18 06:17:17;;;;;;;;;;;21.40;59.60;;;17.16;100.00;95115.25;5028298;28;19916;-44
2023/09/18 06:19:44;;;;;;;;;;;21.50;59.60;;;17.25;100.00;95139.47;5030600;28;19979;-45
2023/09/18 06:22:10;;;;;;;;;;;21.60;59.60;;;17.31;100.00;95149.75;5022154;28;19918;-45
2023/09/18 06:24:36;;;;;;;;;;;21.70;59.60;;;17.40;100.00;95154.34;5026548;28;20272;-43
2023/09/18 06:27:06;;;;;;;;;;;21.80;59.50;;;17.47;100.00;95160.03;4999297;28;19909;-44
2023/09/18 06:29:33;;;;;;;;;;;21.90;59.50;;;17.53;100.00;95172.22;5024359;28;20394;-44
2023/09/18 06:32:00;;;;;;;;;;;22.00;59.50;;;17.62;100.00;95170.31;5030293;28;19948;-47
2023/09/18 06:34:26;;;;;;;;;;;22.10;59.40;;;17.69;100.00;95159.84;5020076;28;19909;-47
2023/09/18 06:36:52;;;;;;;;;;;22.20;59.40;;;17.77;100.00;95164.47;5024045;28;20355;-45
2023/09/18 06:39:17;;;;;;;;;;;22.30;59.40;;;17.87;100.00;95166.03;5029785;28;19920;-44
2023/09/18 06:41:43;;;;;;;;;;;22.40;59.40;;;17.99;100.00;95165.38;5025101;28;19916;-45
2023/09/18 06:44:09;;;;;;;;;;;22.40;59.30;;;18.10;100.00;95180.06;5029706;28;20403;-48
2023/09/18 06:46:35;;;;;;;;;;;22.50;59.20;;;18.18;100.00;95197.34;5025276;28;19916;-45
2023/09/18 06:49:01;;;;;;;;;;;22.60;59.20;;;18.27;100.00;95190.81;5024696;28;20372;-44
2023/09/18 06:51:27;;;;;;;;;;;22.70;59.20;;;18.38;100.00;95206.63;5026277;28;20363;-43
2023/09/18 06:53:53;;;;;;;;;;;22.80;59.20;;;18.47;100.00;95210.84;5020665;28;20424;-45
2023/09/18 06:56:20;;;;;;;;;;;22.90;59.10;;;18.61;100.00;95217.94;5030494;28;20290;-44
2023/09/18 06:58:47;;;;;;;;;;;23.00;59.10;;;18.73;100.00;95228.84;5020015;28;19913;-44
2023/09/18 07:01:15;;;;;;;;;;;23.10;59.00;;;18.78;100.00;95223.28;5009971;28;19909;-44
2023/09/18 07:03:40;;;;;;;;;;;23.20;59.00;;;18.82;100.00;95229.59;5009501;28;19963;-44
2023/09/18 07:06:06;;;;;;;;;;;23.30;58.90;;;18.87;100.00;95234.84;5010442;28;19912;-45
2023/09/18 07:08:32;;;;;;;;;;;23.20;58.80;;;18.80;100.00;95229.13;5010578;28;19935;-50
2023/09/18 07:10:59;;;;;;;;;;;23.20;58.80;;;18.77;100.00;95232.50;5009601;28;19919;-44
2023/09/18 07:13:25;;;;;;;;;;;23.20;58.80;;;18.72;99.12;95232.66;5012142;28;20291;-44
2023/09/18 07:15:50;;;;;;;;;;;23.10;58.80;;;18.59;96.85;95233.66;5003258;28;19909;-48
2023/09/18 07:18:16;;;;;;;;;;;23.10;59.40;;;18.60;96.67;95230.63;5019187;28;19967;-45
2023/09/18 07:20:44;;;;;;;;;;;23.00;58.70;;;18.59;96.03;95239.06;5017928;28;19916;-51
2023/09/18 07:23:10;;;;;;;;;;;22.90;58.70;;;18.58;96.01;95248.25;4983902;28;19956;-48
2023/09/18 07:25:39;;;;;;;;;;;22.90;58.70;;;18.55;97.42;95248.91;5021353;28;20449;-43
2023/09/18 07:28:08;;;;;;;;;;;22.90;58.70;;;18.51;98.08;95243.34;5008155;28;19963;-46
2023/09/18 07:30:37;;;;;;;;;;;22.80;58.70;;;18.51;98.23;95237.97;5010173;28;20279;-46
2023/09/18 07:33:03;;;;;;;;;;;22.80;58.70;;;18.46;97.93;95243.56;5012882;28;19916;-43
2023/09/18 07:35:29;;;;;;;;;;;22.70;58.70;;;18.46;97.05;95244.34;4997311;28;19936;-44
2023/09/18 07:37:55;;;;;;;;;;;22.70;58.70;;;18.45;97.70;95242.75;5016002;28;19960;-46
2023/09/18 07:40:21;;;;;;;;;;;22.70;58.70;;;18.44;97.69;95240.38;5014292;28;19993;-49
2023/09/18 07:42:47;;;;;;;;;;;22.60;58.70;;;18.43;97.50;95238.81;5017704;28;19962;-44
2023/09/18 07:45:13;;;;;;;;;;;22.60;58.70;;;18.42;96.79;95242.59;5016173;28;20322;-46
2023/09/18 07:47:39;;;;;;;;;;;22.60;58.80;;;18.35;94.47;95239.63;5011059;28;19913;-47
2023/09/18 07:50:06;;;;;;;;;;;22.50;58.70;;;18.33;94.52;95248.00;5018538;28;19909;-45
2023/09/18 07:52:32;;;;;;;;;;;22.50;58.70;;;18.25;93.75;95246.94;5021647;28;20437;-44
2023/09/18 07:54:58;;;;;;;;;;;22.50;58.70;;;18.25;94.25;95262.31;5021292;28;19916;-45
2023/09/18 07:57:28;;;;;;;;;;;22.50;58.70;;;18.22;94.90;95261.06;5017938;28;19912;-45
2023/09/18 07:59:54;;;;;;;;;;;22.50;58.70;;;18.20;95.19;95265.97;5016298;28;19908;-44
2023/09/18 08:02:21;;;;;;;;;;;22.50;58.60;;;18.21;95.59;95269.47;5017261;28;20381;-43
2023/09/18 08:04:47;;;;;;;;;;;22.50;58.70;;;18.20;97.42;95274.03;5016238;28;19917;-44
2023/09/18 08:07:13;;;;;;;;;;;22.50;58.60;;;18.20;98.47;95284.81;5020897;28;19924;-45
2023/09/18 08:09:39;;;;;;;;;;;22.50;58.70;;;18.23;99.38;95297.66;5013367;28;19996;-51
2023/09/18 08:12:08;;;;;;;;;;;22.50;58.70;;;18.21;100.00;95293.72;5020443;28;19912;-46
2023/09/18 08:14:36;;;;;;;;;;;22.40;58.70;;;18.20;100.00;95297.53;5021932;28;19916;-49
2023/09/18 08:17:04;;;;;;;;;;;22.40;58.70;;;18.14;100.00;95293.41;5018561;28;20395;-51
2023/09/18 08:19:32;;;;;;;;;;;22.30;59.30;;;18.19;100.00;95291.34;5021933;28;19971;-55
2023/09/18 08:22:01;;;;;;;;;;;22.30;58.80;;;18.16;100.00;95291.97;5021554;28;19916;-51
2023/09/18 08:24:27;;;;;;;;;;;22.30;58.90;;;18.11;100.00;95289.44;5030858;28;20271;-53
2023/09/18 08:26:54;;;;;;;;;;;22.30;58.90;;;18.06;100.00;95305.78;5032898;28;19909;-54
2023/09/18 08:29:20;;;;;;;;;;;22.20;58.90;;;18.03;100.00;95314.50;5024989;28;19916;-54
2023/09/18 08:31:46;;;;;;;;;;;22.20;59.00;;;17.94;100.00;95303.72;5032496;28;20295;-52
2023/09/18 08:34:11;;;;;;;;;;;22.10;59.10;;;17.85;100.00;95308.31;5028213;28;19913;-47
2023/09/18 08:36:38;;;;;;;;;;;22.00;59.30;;;17.87;100.00;95313.41;5032302;28;20385;-53
2023/09/18 08:39:07;;;;;;;;;;;22.00;59.40;;;17.85;100.00;95311.03;5032424;28;19912;-48
2023/09/18 08:41:37;;;;;;;;;;;21.90;59.50;;;17.66;100.00;95308.59;5024264;28;19912;-47
2023/09/18 08:44:04;;;;;;;;;;;21.90;59.70;;;17.64;100.00;95321.59;5014949;28;19932;-48
2023/09/18 08:46:31;;;;;;;;;;;21.80;59.80;;;17.52;100.00;95316.06;5020613;28;19919;-51
2023/09/18 08:49:01;;;;;;;;;;;21.70;60.10;;;17.50;100.00;95310.97;5023199;28;19995;-50
2023/09/18 08:51:28;;;;;;;;;;;21.70;60.50;;;17.50;100.00;95308.28;5025239;28;19978;-50
2023/09/18 08:53:55;;;;;;;;;;;21.70;60.70;;;17.45;100.00;95321.09;5016578;28;19909;-51
2023/09/18 08:56:23;;;;;;;;;;;21.60;61.00;;;17.45;100.00;95318.41;5011120;28;19910;-48
2023/09/18 08:58:49;;;;;;;;;;;21.60;61.20;;;17.35;100.00;95325.66;5000600;28;20003;-49
2023/09/18 09:01:15;;;;;;;;;;;21.60;61.40;;;17.20;100.00;95338.75;5016805;28;20311;-48
2023/09/18 09:03:45;;;;;;;;;;;21.60;61.80;;;17.32;100.00;95355.91;5017456;28;19913;-46
2023/09/18 09:06:12;;;;;;;;;;;21.50;61.70;;;17.31;100.00;95353.53;5013945;28;20015;-49
2023/09/18 09:08:39;;;;;;;;;;;21.50;61.70;;;17.24;100.00;95347.81;5028696;28;19909;-47
2023/09/18 09:11:05;;;;;;;;;;;21.50;61.90;;;17.26;100.00;95351.75;5030230;28;19916;-49
2023/09/18 09:13:32;;;;;;;;;;;21.50;61.80;;;17.22;100.00;95352.72;5031007;28;19915;-48
2023/09/18 09:16:00;;;;;;;;;;;21.50;61.90;;;17.27;100.00;95364.13;5021197;28;19916;-51
2023/09/18 09:18:29;;;;;;;;;;;21.40;61.90;;;17.27;100.00;95369.53;5038562;23;19929;-47
2023/09/18 09:20:59;;;;;;;;;;;21.50;62.00;;;17.25;100.00;95368.25;5010253;28;20268;-46
2023/09/18 09:24:02;;;;;;;;;;;21.50;62.00;;;17.25;100.00;95362.84;5008123;28;20016;-52
2023/09/18 09:26:28;;;;;;;;;;;21.50;62.00;;;17.30;100.00;95363.50;4946516;28;20011;-49
2023/09/18 09:28:54;;;;;;;;;;;21.50;62.10;;;17.35;100.00;95370.63;5011391;28;19996;-49
2023/09/18 09:31:27;;;;;;;;;;;21.50;62.10;;;17.40;100.00;95358.94;5012433;28;19913;-48
2023/09/18 09:33:53;;;;;;;;;;;21.50;62.00;;;17.46;100.00;95371.94;4994365;28;19959;-49
2023/09/18 09:36:20;;;;;;;;;;;21.50;62.10;;;17.49;100.00;95376.72;5011189;28;19913;-46
2023/09/18 09:38:46;;;;;;;;;;;21.60;62.10;;;17.52;100.00;95375.28;5009376;28;19932;-50
2023/09/18 09:41:16;;;;;;;;;;;21.60;62.00;;;17.49;100.00;95376.72;5011060;28;19909;-48
2023/09/18 09:43:44;;;;;;;;;;;21.70;62.00;;;17.47;100.00;95373.53;5012623;28;19909;-52
2023/09/18 09:46:21;;;;;;;;;;;21.70;61.90;;;17.50;100.00;95374.81;5011425;28;19913;-46
2023/09/18 09:49:04;;;;;;;;;;;21.70;61.90;;;17.52;100.00;95372.59;4997878;28;19962;-47
2023/09/18 09:51:31;;;;;;;;;;;21.70;62.00;;;17.44;100.00;95378.75;5011068;28;19921;-48
2023/09/18 09:54:00;;;;;;;;;;;21.70;61.90;;;17.46;100.00;95373.84;5010842;28;19913;-48
2023/09/18 09:56:50;;;;;;;;;;;21.70;61.90;;;17.46;100.00;95371.16;5011942;28;20275;-49
2023/09/18 09:59:19;;;;;;;;;;;21.70;62.00;;;17.50;100.00;95374.81;4993200;28;20335;-47
2023/09/18 10:01:50;;;;;;;;;;;21.70;62.70;;;17.51;100.00;95376.38;5012168;28;19992;-48
2023/09/18 10:04:19;;;;;;;;;;;21.70;61.90;;;17.55;100.00;95386.22;5010588;28;19909;-48
2023/09/18 10:06:55;;;;;;;;;;;21.80;62.00;;;17.44;100.00;95386.81;5012132;28;20378;-48
2023/09/18 10:09:23;;;;;;;;;;;21.80;61.90;;;17.46;100.00;95377.34;4994211;28;19916;-47
2023/09/18 10:11:55;;;;;;;;;;;21.80;61.80;;;17.41;100.00;95373.97;5012434;28;19920;-47
2023/09/18 10:14:32;;;;;;;;;;;21.80;61.80;;;17.38;100.00;95374.59;5007932;28;19909;-49
2023/09/18 10:17:29;;;;;;;;;;;21.80;61.80;;;17.44;100.00;95363.38;5005856;28;19916;-51
2023/09/18 10:20:16;;;;;;;;;;;21.80;61.80;;;17.43;100.00;95359.13;5008948;28;20402;-47
2023/09/18 10:22:48;;;;;;;;;;;21.80;61.80;;;17.43;100.00;95361.00;5008220;28;20295;-49
2023/09/18 10:25:31;;;;;;;;;;;21.90;61.70;;;17.45;100.00;95361.47;5007308;28;19913;-49
2023/09/18 10:27:58;;;;;;;;;;;21.90;61.60;;;17.41;100.00;95377.47;5008018;28;19970;-47
2023/09/18 10:30:26;;;;;;;;;;;22.00;61.50;;;17.46;100.00;95381.94;5011451;28;19909;-48
2023/09/18 10:32:53;;;;;;;;;;;22.10;61.30;;;17.50;100.00;95382.88;5011543;28;19913;-48
2023/09/18 10:35:20;;;;;;;;;;;22.30;61.30;;;17.63;100.00;95381.97;5010482;28;19909;-49
2023/09/18 10:37:51;;;;;;;;;;;22.40;61.10;;;17.70;100.00;95384.19;5011369;28;19909;-48
2023/09/18 10:40:18;;;;;;;;;;;22.40;61.00;;;17.69;100.00;95380.69;5010564;28;19909;-52
2023/09/18 10:42:48;;;;;;;;;;;22.50;61.00;;;17.71;100.00;95375.00;5010541;28;19954;-48
2023/09/18 10:45:15;;;;;;;;;;;22.60;61.00;;;17.77;100.00;95371.88;5011457;28;20283;-49
2023/09/18 10:47:46;;;;;;;;;;;22.60;60.80;;;17.82;100.00;95367.44;5012494;28;19913;-48
2023/09/18 10:50:23;;;;;;;;;;;22.80;60.80;;;17.93;100.00;95371.44;5009892;28;20373;-54
2023/09/18 10:52:49;;;;;;;;;;;22.90;60.50;;;17.99;100.00;95367.47;5002712;28;20398;-49
2023/09/18 10:55:16;;;;;;;;;;;23.10;60.30;;;18.08;100.00;95357.44;4994288;28;19913;-54
2023/09/18 10:57:57;;;;;;;;;;;23.30;60.00;;;18.13;100.00;95349.22;4999115;28;19916;-53
2023/09/18 11:00:29;;;;;;;;;;;23.40;59.80;;;18.20;100.00;95341.44;5005134;28;19909;-55
2023/09/18 11:03:17;;;;;;;;;;;23.40;59.80;;;18.04;100.00;95303.41;4991476;28;20372;-48
2023/09/18 11:05:52;;;;;;;;;;;23.30;59.80;;;17.69;100.00;95299.91;5002660;28;20359;-53
2023/09/18 11:08:45;;;;;;;;;;;23.10;59.80;;;17.64;100.00;95285.78;4994020;28;20368;-52
2023/09/18 11:11:16;;;;;;;;;;;22.90;59.80;;;17.54;100.00;95276.91;5006809;28;20426;-55
2023/09/18 11:13:49;;;;;;;;;;;22.80;59.90;;;17.51;100.00;95292.91;4991689;28;20284;-57
2023/09/18 11:16:32;;;;;;;;;;;22.80;59.90;;;17.72;100.00;95298.47;4997209;28;20011;-56